Time;durP1;ratioP1;P1;durP2;ratioP2;P2;SDS_P1;SDS_P2;PMS_P1;PMS_P2;Temp;Humidity;BMP_temperature;BMP_pressure;BME280_temperature;BME280_humidity;BME280_pressure;Samples;Min_cycle;Max_cycle;Signal;HPM_P1;HPM_P2
2022/11/24 00:00:28;;;;;;;2.33;1.15;;;;;;;5.97;100.00;96114.56;5042648;28;20493;-67
2022/11/24 00:02:54;;;;;;;4.10;0.93;;;;;;;6.00;100.00;96108.41;5042918;28;20091;-67
2022/11/24 00:05:19;;;;;;;4.93;0.90;;;;;;;6.05;100.00;96110.84;5037904;28;20496;-67
2022/11/24 00:07:44;;;;;;;3.03;0.88;;;;;;;6.01;100.00;96102.59;5042865;28;20055;-67
2022/11/24 00:10:10;;;;;;;1.80;0.88;;;;;;;6.02;100.00;96097.97;5037843;28;20087;-68
2022/11/24 00:12:35;;;;;;;2.60;1.02;;;;;;;6.08;100.00;96099.28;5042979;28;20049;-67
2022/11/24 00:15:01;;;;;;;3.28;0.90;;;;;;;6.06;100.00;96093.41;5043221;28;20432;-68
2022/11/24 00:17:28;;;;;;;4.68;1.67;;;;;;;6.05;100.00;96092.63;5033565;28;20091;-66
2022/11/24 00:19:54;;;;;;;2.80;1.20;;;;;;;6.07;100.00;96092.28;5040781;28;20752;-67
2022/11/24 00:22:19;;;;;;;1.98;0.95;;;;;;;6.09;100.00;96098.94;5020059;28;20065;-65
2022/11/24 00:24:44;;;;;;;2.38;1.50;;;;;;;6.03;100.00;96105.78;5042930;28;20063;-68
2022/11/24 00:27:09;;;;;;;1.40;0.80;;;;;;;6.07;100.00;96106.66;5037131;28;20152;-68
2022/11/24 00:29:35;;;;;;;4.43;1.15;;;;;;;6.04;100.00;96098.41;5047178;28;20037;-67
2022/11/24 00:32:04;;;;;;;4.68;1.08;;;;;;;5.94;100.00;96097.78;5048847;28;20068;-68
2022/11/24 00:34:30;;;;;;;2.15;1.17;;;;;;;5.93;100.00;96114.44;5042576;28;20045;-68
2022/11/24 00:36:55;;;;;;;1.95;1.17;;;;;;;5.90;100.00;96115.91;5041598;28;20095;-68
2022/11/24 00:39:21;;;;;;;5.43;2.55;;;;;;;5.90;100.00;96115.91;5037722;28;20122;-69
2022/11/24 00:41:46;;;;;;;4.97;1.33;;;;;;;5.91;100.00;96116.72;5041840;28;20667;-68
2022/11/24 00:44:12;;;;;;;3.90;1.20;;;;;;;5.94;100.00;96118.72;5017583;28;20119;-67
2022/11/24 00:46:37;;;;;;;2.45;1.30;;;;;;;5.89;100.00;96125.22;5041912;28;20071;-68
2022/11/24 00:49:03;;;;;;;1.90;0.95;;;;;;;5.89;100.00;96127.94;5039350;28;20090;-67
2022/11/24 00:51:29;;;;;;;2.80;1.30;;;;;;;5.90;100.00;96124.06;5032213;28;20041;-67
2022/11/24 00:53:59;;;;;;;5.78;1.20;;;;;;;5.93;100.00;96130.75;5039396;28;20437;-68
2022/11/24 00:56:26;;;;;;;4.20;1.20;;;;;;;6.00;100.00;96135.59;5036146;28;20069;-68
2022/11/24 00:58:51;;;;;;;2.50;1.20;;;;;;;6.01;100.00;96135.22;5041977;28;20041;-67
2022/11/24 01:01:20;;;;;;;2.75;1.27;;;;;;;5.96;100.00;96140.94;5044747;28;20262;-69
2022/11/24 01:03:46;;;;;;;4.18;1.30;;;;;;;5.98;100.00;96144.09;5041099;28;20041;-68
2022/11/24 01:06:20;;;;;;;3.58;1.40;;;;;;;5.99;100.00;96145.66;5044071;28;20497;-68
2022/11/24 01:08:46;;;;;;;6.40;1.40;;;;;;;6.07;100.00;96154.81;5049008;28;20032;-69
2022/11/24 01:11:15;;;;;;;4.47;1.13;;;;;;;6.06;100.00;96156.72;5019202;28;20090;-68
2022/11/24 01:13:42;;;;;;;3.75;1.20;;;;;;;6.16;100.00;96151.91;5039742;28;20040;-68
2022/11/24 01:16:14;;;;;;;1.88;1.20;;;;;;;6.30;100.00;96169.38;5043945;28;20052;-69
2022/11/24 01:18:39;;;;;;;5.50;1.40;;;;;;;6.34;100.00;96168.66;5051147;28;20376;-68
2022/11/24 01:21:05;;;;;;;3.72;1.30;;;;;;;6.29;100.00;96175.16;5031064;28;20044;-68
2022/11/24 01:23:31;;;;;;;2.33;1.10;;;;;;;6.23;100.00;96180.06;5043381;28;20037;-68
2022/11/24 01:25:56;;;;;;;7.60;1.45;;;;;;;6.35;100.00;96189.28;5038086;28;20041;-68
2022/11/24 01:28:21;;;;;;;3.17;1.50;;;;;;;6.32;100.00;96188.06;5016811;28;20049;-68
2022/11/24 01:30:56;;;;;;;2.95;1.20;;;;;;;6.23;100.00;96188.22;5040262;28;20390;-69
2022/11/24 01:33:21;;;;;;;6.18;1.40;;;;;;;6.22;100.00;96202.19;5033237;28;20615;-68
2022/11/24 01:35:47;;;;;;;5.03;1.40;;;;;;;6.45;100.00;96197.69;5021076;28;20059;-68
2022/11/24 01:38:12;;;;;;;4.55;1.33;;;;;;;6.41;100.00;96198.75;5016642;28;20071;-68
2022/11/24 01:40:37;;;;;;;3.65;1.25;;;;;;;6.32;100.00;96207.88;5042726;28;20040;-68
2022/11/24 01:43:18;;;;;;;5.13;1.60;;;;;;;6.38;100.00;96213.84;5040988;28;20040;-69
2022/11/24 01:45:45;;;;;;;6.45;2.53;;;;;;;6.26;100.00;96213.91;5037335;28;20044;-68
2022/11/24 01:48:17;;;;;;;6.15;1.70;;;;;;;6.44;100.00;96212.44;5033879;28;20087;-67
2022/11/24 01:50:43;;;;;;;8.20;1.52;;;;;;;6.29;100.00;96218.66;5037592;28;20052;-68
2022/11/24 01:53:10;;;;;;;5.55;1.50;;;;;;;6.22;100.00;96227.44;5033514;28;20087;-68
2022/11/24 01:55:38;;;;;;;4.15;1.40;;;;;;;6.17;100.00;96224.97;5038352;28;20139;-68
2022/11/24 01:58:09;;;;;;;4.22;1.60;;;;;;;6.17;100.00;96224.19;5033977;28;20576;-67
2022/11/24 02:00:37;;;;;;;4.07;1.20;;;;;;;6.35;100.00;96236.31;5020516;28;20049;-67
2022/11/24 02:03:03;;;;;;;6.40;1.70;;;;;;;6.30;100.00;96223.75;5017587;28;20041;-66
2022/11/24 02:05:43;;;;;;;3.88;1.35;;;;;;;6.21;100.00;96233.22;5016627;28;20036;-67
2022/11/24 02:08:25;;;;;;;9.52;1.80;;;;;;;6.25;100.00;96225.97;5033984;28;20103;-67
2022/11/24 02:10:50;;;;;;;5.10;1.50;;;;;;;6.18;100.00;96223.84;5016873;28;20041;-67
2022/11/24 02:13:16;;;;;;;4.57;1.67;;;;;;;6.21;100.00;96234.03;5033762;28;20095;-67
2022/11/24 02:15:42;;;;;;;4.88;1.80;;;;;;;6.21;100.00;96242.19;5035568;28;20090;-68
2022/11/24 02:18:07;;;;;;;8.45;1.90;;;;;;;6.18;100.00;96242.09;5033099;28;21996;-67
2022/11/24 02:20:33;;;;;;;5.90;1.80;;;;;;;6.22;100.00;96238.31;5038702;28;20068;-67
2022/11/24 02:22:58;;;;;;;9.43;2.10;;;;;;;6.22;100.00;96240.25;5038758;28;20044;-67
2022/11/24 02:25:38;;;;;;;10.00;2.85;;;;;;;6.27;100.00;96248.16;5033290;28;20721;-67
2022/11/24 02:28:11;;;;;;;5.55;2.20;;;;;;;6.32;100.00;96243.25;5015492;28;20136;-66
2022/11/24 02:30:37;;;;;;;6.38;2.22;;;;;;;6.22;100.00;96246.47;5039072;28;20033;-67
2022/11/24 02:33:02;;;;;;;4.65;1.55;;;;;;;6.32;100.00;96253.34;5045288;28;20127;-66
2022/11/24 02:35:28;;;;;;;6.47;2.13;;;;;;;6.22;100.00;96256.56;5032979;28;20091;-66
2022/11/24 02:37:53;;;;;;;6.10;1.90;;;;;;;6.21;100.00;96253.06;5037754;28;20041;-69
2022/11/24 02:40:25;;;;;;;4.75;2.13;;;;;;;6.11;100.00;96253.56;5016422;28;20415;-69
2022/11/24 02:42:55;;;;;;;8.88;2.00;;;;;;;6.08;100.00;96251.53;5040327;28;20060;-69
2022/11/24 02:45:22;;;;;;;5.45;2.10;;;;;;;6.29;100.00;96251.31;5034192;28;20477;-68
2022/11/24 02:47:47;;;;;;;8.60;2.17;;;;;;;6.24;100.00;96260.50;5034941;28;20048;-68
2022/11/24 02:50:13;;;;;;;7.32;1.80;;;;;;;6.26;100.00;96260.94;5035137;28;20330;-68
2022/11/24 02:52:38;;;;;;;9.23;1.85;;;;;;;6.29;100.00;96259.47;5040848;28;20554;-68
2022/11/24 02:55:04;;;;;;;5.63;1.63;;;;;;;6.30;100.00;96256.41;5037549;28;20041;-67
2022/11/24 02:57:29;;;;;;;6.93;2.25;;;;;;;6.34;100.00;96267.38;5018499;28;20048;-68
2022/11/24 02:59:55;;;;;;;4.53;1.65;;;;;;;6.41;100.00;96262.13;5023577;28;20501;-69
2022/11/24 03:02:21;;;;;;;13.10;2.97;;;;;;;6.37;100.00;96269.38;5034167;28;20120;-67
2022/11/24 03:04:46;;;;;;;7.00;1.83;;;;;;;6.39;100.00;96272.56;5022610;28;20051;-69
2022/11/24 03:07:12;;;;;;;13.23;2.65;;;;;;;6.55;100.00;96258.94;5015569;28;20048;-68
2022/11/24 03:09:37;;;;;;;6.07;2.03;;;;;;;6.67;100.00;96261.56;5028720;28;20045;-68
2022/11/24 03:12:03;;;;;;;7.50;1.90;;;;;;;6.78;100.00;96267.28;5036682;28;20057;-68
2022/11/24 03:14:28;;;;;;;24.98;6.00;;;;;;;6.73;100.00;96275.72;5040668;28;20055;-68
2022/11/24 03:16:53;;;;;;;9.82;2.67;;;;;;;6.64;100.00;96264.22;5043277;28;20036;-68
2022/11/24 03:19:19;;;;;;;7.75;2.00;;;;;;;6.63;100.00;96281.69;5039113;28;20036;-69
2022/11/24 03:21:44;;;;;;;6.18;1.77;;;;;;;6.46;100.00;96269.22;5042660;28;20041;-69
2022/11/24 03:24:09;;;;;;;10.73;2.13;;;;;;;6.41;100.00;96281.16;5038738;28;20029;-69
2022/11/24 03:26:35;;;;;;;7.05;1.83;;;;;;;6.36;100.00;96275.97;5043133;28;20047;-70
2022/11/24 03:29:00;;;;;;;8.50;2.28;;;;;;;6.44;100.00;96282.38;5043567;28;20041;-69
2022/11/24 03:31:25;;;;;;;6.38;1.77;;;;;;;6.40;100.00;96281.50;5042390;28;20052;-69
2022/11/24 03:33:51;;;;;;;5.47;1.67;;;;;;;6.32;100.00;96284.03;5056038;28;20044;-69
2022/11/24 03:36:16;;;;;;;10.25;2.00;;;;;;;6.21;100.00;96282.16;5057785;28;20488;-70
2022/11/24 03:38:42;;;;;;;9.27;2.00;;;;;;;6.13;100.00;96281.19;5060490;28;20037;-69
2022/11/24 03:41:07;;;;;;;5.97;1.75;;;;;;;6.20;100.00;96277.88;5039929;28;20394;-69
2022/11/24 03:43:33;;;;;;;8.52;1.80;;;;;;;6.45;100.00;96276.59;5047107;28;20513;-68
2022/11/24 03:45:58;;;;;;;9.27;1.70;;;;;;;6.48;100.00;96275.09;5067963;28;20513;-67
2022/11/24 03:48:23;;;;;;;7.82;1.80;;;;;;;6.50;100.00;96275.56;5060286;28;20559;-68
2022/11/24 03:50:53;;;;;;;6.57;1.85;;;;;;;6.60;100.00;96276.94;5053992;28;20044;-67
2022/11/24 03:53:19;;;;;;;7.38;1.83;;;;;;;6.64;100.00;96272.38;5036998;28;20051;-67
2022/11/24 03:55:44;;;;;;;9.48;1.95;;;;;;;6.55;100.00;96277.22;5042925;28;20041;-68
2022/11/24 03:58:10;;;;;;;8.15;1.92;;;;;;;6.50;100.00;96278.28;5019785;28;20167;-66
2022/11/24 04:00:35;;;;;;;10.13;2.17;;;;;;;6.46;100.00;96283.63;5044084;28;20481;-66
2022/11/24 04:03:00;;;;;;;6.32;2.00;;;;;;;6.48;100.00;96289.50;5043007;28;20045;-67
2022/11/24 04:05:26;;;;;;;9.32;2.58;;;;;;;6.50;100.00;96291.88;5045280;28;20048;-68
2022/11/24 04:07:55;;;;;;;8.18;2.10;;;;;;;6.53;100.00;96295.81;5042335;28;20059;-69
2022/11/24 04:10:20;;;;;;;11.10;2.13;;;;;;;6.47;100.00;96287.91;5018254;28;20135;-68
2022/11/24 04:12:46;;;;;;;9.10;2.72;;;;;;;6.45;100.00;96298.34;5042589;28;20045;-68
2022/11/24 04:15:17;;;;;;;6.88;2.47;;;;;;;6.47;100.00;96298.00;5037749;28;20048;-67
2022/11/24 04:17:44;;;;;;;10.57;2.28;;;;;;;6.51;100.00;96296.16;5041842;28;20126;-67
2022/11/24 04:20:11;;;;;;;5.70;1.63;;;;;;;6.48;100.00;96305.81;5019793;28;20053;-68
2022/11/24 04:22:36;;;;;;;6.10;1.75;;;;;;;6.62;100.00;96312.75;5042459;28;20037;-67
2022/11/24 04:25:03;;;;;;;8.00;1.60;;;;;;;6.65;100.00;96309.34;5047220;28;20101;-67
2022/11/24 04:27:28;;;;;;;4.90;1.50;;;;;;;6.59;100.00;96324.34;5059874;28;20056;-68
2022/11/24 04:29:54;;;;;;;7.95;2.15;;;;;;;6.46;100.00;96326.34;5062128;28;20041;-69
2022/11/24 04:32:19;;;;;;;9.30;2.15;;;;;;;6.44;100.00;96334.84;5057006;28;20722;-69
2022/11/24 04:34:45;;;;;;;7.57;2.08;;;;;;;6.62;100.00;96331.81;5062341;28;20049;-68
2022/11/24 04:37:10;;;;;;;13.32;3.42;;;;;;;6.70;100.00;96334.38;5055370;28;20079;-68
2022/11/24 04:39:35;;;;;;;22.80;4.95;;;;;;;6.85;100.00;96330.06;5065936;28;20047;-68
2022/11/24 04:42:01;;;;;;;10.05;2.63;;;;;;;6.92;100.00;96329.47;5067963;28;20033;-70
2022/11/24 04:44:26;;;;;;;12.23;2.67;;;;;;;7.01;100.00;96338.22;5057980;28;20151;-69
2022/11/24 04:46:52;;;;;;;8.70;2.25;;;;;;;6.81;100.00;96318.31;5053310;28;20446;-69
2022/11/24 04:49:18;;;;;;;10.15;2.22;;;;;;;6.65;100.00;96329.19;5038029;28;20077;-68
2022/11/24 04:51:43;;;;;;;4.35;1.60;;;;;;;6.54;100.00;96327.34;5020951;28;20037;-69
2022/11/24 04:54:10;;;;;;;7.90;1.73;;;;;;;6.54;100.00;96330.84;5034902;28;20045;-69
2022/11/24 04:56:36;;;;;;;6.63;1.70;;;;;;;6.56;100.00;96327.78;5040313;28;20048;-68
2022/11/24 04:59:02;;;;;;;11.48;2.55;;;;;;;6.57;100.00;96335.59;5041086;28;20055;-68
2022/11/24 05:01:27;;;;;;;9.30;2.10;;;;;;;6.60;100.00;96342.25;5017700;28;20129;-69
2022/11/24 05:03:53;;;;;;;10.38;2.22;;;;;;;6.41;100.00;96351.88;5039787;28;20049;-69
2022/11/24 05:06:19;;;;;;;7.43;2.75;;;;;;;6.40;100.00;96358.44;5035926;28;20041;-69
2022/11/24 05:08:49;;;;;;;9.00;2.05;;;;;;;6.40;100.00;96360.38;5042963;28;20494;-68
2022/11/24 05:11:16;;;;;;;6.47;1.42;;;;;;;6.29;100.00;96363.59;5036842;28;20370;-68
2022/11/24 05:13:41;;;;;;;8.82;2.00;;;;;;;6.29;100.00;96366.31;5041837;28;20043;-68
2022/11/24 05:16:07;;;;;;;6.00;1.60;;;;;;;6.25;100.00;96375.53;5044803;28;20044;-67
2022/11/24 05:18:32;;;;;;;13.65;1.60;;;;;;;6.13;100.00;96370.94;5052707;28;20509;-68
2022/11/24 05:20:58;;;;;;;9.23;1.77;;;;;;;6.23;100.00;96369.63;5043238;28;20048;-68
2022/11/24 05:23:24;;;;;;;3.33;1.70;;;;;;;6.27;100.00;96376.75;5036514;28;20804;-69
2022/11/24 05:25:49;;;;;;;6.82;1.63;;;;;;;6.26;100.00;96377.09;5041086;28;20114;-68
2022/11/24 05:28:16;;;;;;;8.00;1.63;;;;;;;6.35;100.00;96377.75;5036472;28;20037;-69
2022/11/24 05:30:41;;;;;;;6.88;1.45;;;;;;;6.32;100.00;96373.81;5040227;28;20037;-68
2022/11/24 05:33:11;;;;;;;6.70;1.55;;;;;;;6.40;100.00;96377.50;5036453;28;20044;-67
2022/11/24 05:35:37;;;;;;;5.55;1.60;;;;;;;6.54;100.00;96384.47;5049471;28;20517;-67
2022/11/24 05:38:03;;;;;;;7.75;1.60;;;;;;;6.59;100.00;96376.03;5022652;28;20110;-66
2022/11/24 05:40:30;;;;;;;11.20;2.50;;;;;;;6.58;100.00;96386.13;5040508;28;20044;-67
2022/11/24 05:42:55;;;;;;;11.05;1.67;;;;;;;6.58;100.00;96379.91;5041946;28;20074;-67
2022/11/24 05:45:21;;;;;;;7.78;1.40;;;;;;;6.48;100.00;96381.19;5036001;28;20127;-67
2022/11/24 05:47:48;;;;;;;6.15;1.52;;;;;;;6.57;100.00;96381.03;5041040;28;20080;-66
2022/11/24 05:50:16;;;;;;;9.88;1.50;;;;;;;6.47;100.00;96385.84;5033749;28;20043;-67
2022/11/24 05:52:41;;;;;;;6.93;1.17;;;;;;;6.44;100.00;96386.53;5040871;28;20037;-67
2022/11/24 05:55:08;;;;;;;6.55;1.67;;;;;;;6.45;100.00;96388.13;5034780;28;20098;-68
2022/11/24 05:57:33;;;;;;;6.35;1.58;;;;;;;6.42;100.00;96386.09;5038756;28;20044;-68
2022/11/24 05:59:59;;;;;;;6.13;1.92;;;;;;;6.38;100.00;96377.06;5038782;28;20041;-68
2022/11/24 06:02:25;;;;;;;7.57;1.50;;;;;;;6.47;100.00;96369.53;5034314;28;20081;-68
2022/11/24 06:04:50;;;;;;;5.40;1.45;;;;;;;6.46;100.00;96381.56;5041249;28;20047;-67
2022/11/24 06:07:16;;;;;;;10.52;2.42;;;;;;;6.28;100.00;96380.25;5020907;28;20037;-67
2022/11/24 06:09:42;;;;;;;8.45;1.90;;;;;;;6.27;100.00;96379.47;5047041;28;20104;-68
2022/11/24 06:12:11;;;;;;;10.10;1.70;;;;;;;6.19;100.00;96382.34;5038183;28;20037;-67
2022/11/24 06:14:37;;;;;;;7.20;1.90;;;;;;;6.06;100.00;96379.66;5046124;28;20425;-67
2022/11/24 06:17:04;;;;;;;15.75;2.75;;;;;;;6.09;100.00;96378.19;5039997;28;20127;-66
2022/11/24 06:19:29;;;;;;;7.57;1.67;;;;;;;6.10;100.00;96377.84;5040788;28;20048;-67
2022/11/24 06:21:55;;;;;;;7.05;1.40;;;;;;;6.17;100.00;96388.13;5040744;28;20049;-67
2022/11/24 06:24:20;;;;;;;6.85;2.15;;;;;;;6.27;100.00;96386.84;5035595;28;20056;-67
2022/11/24 06:26:46;;;;;;;11.27;1.80;;;;;;;6.14;100.00;96391.56;5047854;28;20051;-68
2022/11/24 06:29:11;;;;;;;6.93;1.60;;;;;;;6.09;100.00;96394.50;5040088;28;20131;-68
2022/11/24 06:31:36;;;;;;;4.43;1.13;;;;;;;6.03;100.00;96398.59;5023047;28;20044;-70
2022/11/24 06:34:10;;;;;;;4.35;1.50;;;;;;;6.02;100.00;96407.91;5040350;28;20044;-69
2022/11/24 06:36:36;;;;;;;8.93;1.55;;;;;;;5.90;100.00;96404.03;5040997;28;20051;-70
2022/11/24 06:39:02;;;;;;;5.78;1.40;;;;;;;6.05;100.00;96402.56;5039669;28;20546;-69
2022/11/24 06:41:27;;;;;;;10.00;1.70;;;;;;;6.03;100.00;96409.47;5037471;28;20128;-69
2022/11/24 06:43:53;;;;;;;8.43;1.80;;;;;;;6.03;100.00;96421.16;5022951;28;20045;-69
2022/11/24 06:46:19;;;;;;;10.25;1.98;;;;;;;6.06;100.00;96419.66;5034157;28;20071;-69
2022/11/24 06:48:45;;;;;;;6.95;2.00;;;;;;;6.05;100.00;96416.16;5039894;28;20041;-70
2022/11/24 06:51:14;;;;;;;7.70;1.70;;;;;;;6.02;100.00;96419.56;5039296;28;20041;-68
2022/11/24 06:53:40;;;;;;;5.85;1.65;;;;;;;5.90;100.00;96414.91;5049907;28;20433;-68
2022/11/24 06:56:07;;;;;;;6.13;1.55;;;;;;;5.79;100.00;96419.22;5035069;28;20081;-67
2022/11/24 06:58:33;;;;;;;9.68;2.72;;;;;;;5.81;100.00;96427.03;5040603;28;20088;-69
2022/11/24 07:00:59;;;;;;;7.30;1.77;;;;;;;5.94;100.00;96423.16;5041015;28;20075;-69
2022/11/24 07:03:25;;;;;;;12.20;2.10;;;;;;;6.20;100.00;96413.84;5035079;28;20049;-68
2022/11/24 07:05:57;;;;;;;8.93;2.13;;;;;;;6.56;100.00;96420.28;5045249;28;20095;-69
2022/11/24 07:08:23;;;;;;;9.93;1.77;;;;;;;6.77;100.00;96417.34;5036639;28;20213;-69
2022/11/24 07:10:48;;;;;;;8.52;1.70;;;;;;;7.02;100.00;96420.72;5040549;28;20055;-69
2022/11/24 07:13:14;;;;;;;10.63;1.65;;;;;;;7.09;100.00;96420.88;5034550;28;20128;-69
2022/11/24 07:15:39;;;;;;;7.97;1.48;;;;;;;7.08;100.00;96419.31;5038978;28;20389;-68
2022/11/24 07:18:05;;;;;;;13.18;2.00;;;;;;;6.93;100.00;96422.81;5035880;28;20069;-68
2022/11/24 07:20:30;;;;;;;6.00;1.65;;;;;;;6.89;100.00;96428.16;5038914;28;20048;-68
2022/11/24 07:22:56;;;;;;;14.10;2.20;;;;;;;6.72;100.00;96423.84;5043859;28;20052;-69
2022/11/24 07:25:23;;;;;;;9.93;2.25;;;;;;;6.58;100.00;96428.91;5033660;28;20045;-68
2022/11/24 07:27:49;;;;;;;10.73;2.50;;;;;;;6.49;100.00;96429.03;5042095;28;20048;-68
2022/11/24 07:30:14;;;;;;;11.15;3.03;;;;;;;6.41;100.00;96424.53;5035800;28;20046;-68
2022/11/24 07:32:40;;;;;;;8.80;1.90;;;;;;;6.36;100.00;96428.31;5040267;28;20045;-70
2022/11/24 07:35:05;;;;;;;8.50;1.85;;;;;;;6.46;100.00;96430.53;5017182;28;20041;-69
2022/11/24 07:37:31;;;;;;;6.82;2.08;;;;;;;6.60;100.00;96438.28;5021412;28;20072;-70
2022/11/24 07:39:57;;;;;;;7.70;1.85;;;;;;;6.57;100.00;96432.75;5021029;28;20142;-70
2022/11/24 07:42:22;;;;;;;5.65;2.00;;;;;;;6.53;100.00;96427.19;5015977;28;21074;-70
2022/11/24 07:44:47;;;;;;;7.03;1.98;;;;;;;6.56;100.00;96426.50;5045848;28;20036;-69
2022/11/24 07:47:13;;;;;;;10.90;1.85;;;;;;;6.64;100.00;96431.00;5044698;28;20061;-68
2022/11/24 07:49:38;;;;;;;5.50;1.80;;;;;;;6.73;100.00;96438.22;5049179;28;20037;-70
2022/11/24 07:52:04;;;;;;;9.10;1.95;;;;;;;6.63;100.00;96440.31;5038805;28;20501;-69
2022/11/24 07:54:30;;;;;;;12.40;2.42;;;;;;;6.65;100.00;96439.97;5040693;28;20065;-70
2022/11/24 07:56:55;;;;;;;51.83;24.58;;;;;;;6.67;100.00;96437.69;5039881;28;20112;-69
2022/11/24 07:59:20;;;;;;;13.57;2.97;;;;;;;6.76;100.00;96443.78;5034558;28;20075;-68
2022/11/24 08:01:46;;;;;;;23.13;4.00;;;;;;;6.78;100.00;96441.50;5039091;28;20045;-66
2022/11/24 08:04:11;;;;;;;15.85;4.93;;;;;;;6.78;100.00;96446.94;5032064;28;20048;-69
2022/11/24 08:06:37;;;;;;;16.70;4.55;;;;;;;6.96;100.00;96439.25;5042471;28;20120;-67
2022/11/24 08:09:02;;;;;;;10.20;2.40;;;;;;;7.30;100.00;96441.66;5042114;28;20068;-66
2022/11/24 08:11:30;;;;;;;15.30;3.03;;;;;;;7.25;100.00;96448.13;5040687;28;20048;-68
2022/11/24 08:13:55;;;;;;;11.70;2.58;;;;;;;7.20;100.00;96443.75;5043948;28;20063;-68
2022/11/24 08:16:21;;;;;;;13.98;2.60;;;;;;;7.15;100.00;96438.56;5015666;28;20067;-67
2022/11/24 08:18:52;;;;;;;8.95;2.03;;;;;;;7.10;100.00;96440.75;5044596;28;20112;-67
2022/11/24 08:21:18;;;;;;;9.52;2.47;;;;;;;7.09;100.00;96448.13;5024037;28;20052;-66
2022/11/24 08:23:43;;;;;;;10.15;3.53;;;;;;;7.06;100.00;96440.66;5048653;28;20049;-69
2022/11/24 08:26:16;;;;;;;22.35;6.65;;;;;;;7.05;100.00;96447.25;5041001;28;20115;-66
2022/11/24 08:28:43;;;;;;;8.15;2.40;;;;;;;7.09;100.00;96442.69;5040290;28;20037;-67
2022/11/24 08:31:14;;;;;;;12.43;2.60;;;;;;;7.11;100.00;96451.28;5042608;28;20048;-66
2022/11/24 08:33:40;;;;;;;7.25;2.35;;;;;;;7.18;100.00;96448.75;5043537;28;20037;-67
2022/11/24 08:36:11;;;;;;;19.73;3.33;;;;;;;7.32;100.00;96453.75;5044466;28;20052;-69
2022/11/24 08:38:37;;;;;;;10.75;2.60;;;;;;;7.37;100.00;96453.50;5036121;28;20643;-68
2022/11/24 08:41:07;;;;;;;11.38;2.03;;;;;;;7.42;100.00;96450.53;5046971;28;20033;-63
2022/11/24 08:43:33;;;;;;;10.27;1.60;;;;;;;7.58;100.00;96447.78;5050700;28;20048;-68
2022/11/24 08:46:05;;;;;;;10.10;2.10;;;;;;;7.66;100.00;96446.03;5045068;28;20831;-67
2022/11/24 08:48:31;;;;;;;10.90;1.95;;;;;;;7.42;100.00;96450.53;5040353;28;20076;-68
2022/11/24 08:50:57;;;;;;;7.30;1.90;;;;;;;7.31;100.00;96457.66;5042735;28;20065;-68
2022/11/24 08:53:23;;;;;;;6.93;2.38;;;;;;;7.37;100.00;96460.91;5036515;28;20048;-67
2022/11/24 08:55:48;;;;;;;8.55;1.73;;;;;;;7.31;100.00;96465.81;5023005;28;20060;-67
2022/11/24 08:58:14;;;;;;;11.70;2.20;;;;;;;7.14;100.00;96464.22;5017723;28;20045;-66
2022/11/24 09:00:39;;;;;;;12.02;2.08;;;;;;;7.05;100.00;96471.75;5041767;28;20127;-67
2022/11/24 09:03:04;;;;;;;13.15;2.05;;;;;;;6.99;100.00;96470.44;5036635;28;20579;-67
2022/11/24 09:05:30;;;;;;;9.70;2.38;;;;;;;6.95;100.00;96477.69;5041443;28;20124;-66
2022/11/24 09:07:56;;;;;;;12.52;1.85;;;;;;;6.87;100.00;96484.88;5022604;28;20075;-66
2022/11/24 09:10:22;;;;;;;4.70;1.27;;;;;;;6.88;100.00;96481.03;5018794;28;20493;-65
2022/11/24 09:12:47;;;;;;;12.07;2.08;;;;;;;6.77;100.00;96478.03;5041220;28;20110;-65
2022/11/24 09:15:15;;;;;;;10.70;2.15;;;;;;;6.75;100.00;96484.94;5034268;28;20044;-65
2022/11/24 09:17:41;;;;;;;12.05;2.30;;;;;;;6.68;100.00;96486.34;5040599;28;20106;-65
2022/11/24 09:20:07;;;;;;;9.85;1.88;;;;;;;6.61;100.00;96505.19;5036588;28;20128;-65
2022/11/24 09:22:32;;;;;;;14.00;1.75;;;;;;;6.56;100.00;96505.44;5041943;28;20128;-64
2022/11/24 09:24:57;;;;;;;12.75;1.65;;;;;;;6.56;100.00;96516.31;5052630;28;20047;-66
2022/11/24 09:27:23;;;;;;;6.97;1.63;;;;;;;6.47;100.00;96511.00;5038554;28;20781;-65
2022/11/24 09:29:48;;;;;;;15.45;2.95;;;;;;;6.41;100.00;96515.13;5041541;28;20029;-65
2022/11/24 09:32:14;;;;;;;10.50;2.00;;;;;;;6.37;100.00;96508.75;5036183;28;20060;-65
2022/11/24 09:34:39;;;;;;;14.07;2.25;;;;;;;6.36;100.00;96525.44;5041487;28;20067;-66
2022/11/24 09:37:05;;;;;;;10.80;2.35;;;;;;;6.31;100.00;96521.81;5034002;28;20143;-67
2022/11/24 09:39:32;;;;;;;8.80;1.73;;;;;;;6.30;100.00;96525.69;5042172;28;20101;-67
2022/11/24 09:42:13;;;;;;;9.23;1.67;;;;;;;6.33;100.00;96521.47;5040920;28;20550;-67
2022/11/24 09:45:10;;;;;;;13.23;1.98;;;;;;;6.34;100.00;96538.56;5039232;28;20498;-67
2022/11/24 09:47:54;;;;;;;6.85;1.75;;;;;;;6.35;100.00;96538.22;5023844;28;20043;-68
2022/11/24 09:50:26;;;;;;;17.42;2.13;;;;;;;6.29;100.00;96528.72;5035936;28;20655;-67
2022/11/24 09:53:02;;;;;;;7.28;1.60;;;;;;;6.28;100.00;96543.47;5027095;28;20519;-67
2022/11/24 09:55:53;;;;;;;13.30;3.33;;;;;;;6.41;100.00;96534.16;5036109;28;20106;-68
2022/11/24 09:58:50;;;;;;;5.88;1.63;;;;;;;6.38;100.00;96529.41;5035336;28;20086;-67
2022/11/24 10:01:18;;;;;;;13.18;1.70;;;;;;;6.37;100.00;96535.97;5033540;28;20514;-67
2022/11/24 10:03:49;;;;;;;14.80;2.38;;;;;;;6.45;100.00;96537.75;5041036;28;20141;-68
2022/11/24 10:06:23;;;;;;;8.82;1.98;;;;;;;6.55;100.00;96541.94;5037539;28;20036;-69
2022/11/24 10:09:06;;;;;;;16.15;2.30;;;;;;;6.68;100.00;96531.78;5041919;28;20395;-67
2022/11/24 10:11:55;;;;;;;13.57;1.80;;;;;;;6.66;100.00;96536.78;5029307;28;20128;-67
2022/11/24 10:14:39;;;;;;;7.13;1.83;;;;;;;6.84;100.00;96546.28;4998150;28;20460;-67
2022/11/24 10:17:10;;;;;;;14.65;2.90;;;;;;;6.87;100.00;96534.69;5028342;28;20128;-68
2022/11/24 10:19:57;;;;;;;11.90;1.88;;;;;;;6.91;100.00;96539.44;5037709;28;20045;-67
2022/11/24 10:22:44;;;;;;;8.68;1.75;;;;;;;7.29;100.00;96530.75;5021013;28;20882;-67
2022/11/24 10:25:39;;;;;;;12.90;2.13;;;;;;;7.38;100.00;96533.31;5028479;28;20048;-67
2022/11/24 10:28:11;;;;;;;10.30;1.70;;;;;;;7.83;100.00;96538.34;5026788;28;20069;-67
2022/11/24 10:30:36;;;;;;;10.23;1.65;;;;;;;8.04;100.00;96546.25;5034053;28;20041;-67
2022/11/24 10:33:25;;;;;;;6.68;1.50;;;;;;;7.72;100.00;96531.03;5029769;28;20064;-66
2022/11/24 10:36:05;;;;;;;9.65;2.15;;;;;;;7.36;100.00;96544.53;5031072;28;20087;-67
2022/11/24 10:38:52;;;;;;;8.48;1.42;;;;;;;7.30;100.00;96537.00;5030712;28;20090;-66
2022/11/24 10:41:25;;;;;;;11.15;2.22;;;;;;;7.78;100.00;96548.75;5022997;28;20047;-67
2022/11/24 10:43:51;;;;;;;7.50;1.95;;;;;;;8.15;100.00;96556.63;5031698;28;20047;-66
2022/11/24 10:46:23;;;;;;;3.90;1.23;;;;;;;8.45;100.00;96558.91;5023822;28;20037;-67
2022/11/24 10:48:53;;;;;;;9.00;1.50;;;;;;;8.76;100.00;96563.47;5035249;28;20041;-66
2022/11/24 10:51:50;;;;;;;15.45;4.93;;;;;;;8.71;100.00;96566.47;5026017;28;20041;-66
2022/11/24 10:54:18;;;;;;;11.52;2.75;;;;;;;8.12;100.00;96568.22;5027482;28;20038;-67
2022/11/24 10:56:46;;;;;;;7.00;1.50;;;;;;;8.08;100.00;96564.63;5029447;28;20055;-67
2022/11/24 10:59:23;;;;;;;7.35;1.80;;;;;;;8.10;100.00;96575.97;5022924;28;20064;-67
2022/11/24 11:01:49;;;;;;;4.00;1.55;;;;;;;7.91;100.00;96573.97;5035695;28;20461;-66
2022/11/24 11:04:21;;;;;;;8.35;1.67;;;;;;;8.09;100.00;96572.47;5025977;28;20061;-71
2022/11/24 11:06:46;;;;;;;6.60;1.58;;;;;;;8.07;100.00;96579.41;5030340;28;20029;-67
2022/11/24 11:09:20;;;;;;;7.95;1.40;;;;;;;8.03;100.00;96563.75;5026362;28;20037;-67
2022/11/24 11:11:49;;;;;;;10.82;1.85;;;;;;;8.18;100.00;96559.44;5033388;28;20041;-68
2022/11/24 11:14:32;;;;;;;7.57;2.03;;;;;;;8.15;100.00;96573.78;5034146;28;20041;-68
2022/11/24 11:16:58;;;;;;;4.75;1.75;;;;;;;8.11;100.00;96577.56;5039415;28;20033;-68
2022/11/24 11:19:43;;;;;;;11.32;1.83;;;;;;;8.01;100.00;96573.44;5028812;28;20234;-68
2022/11/24 11:22:08;;;;;;;9.57;2.50;;;;;;;8.01;100.00;96571.50;5012137;28;20041;-68
2022/11/24 11:24:34;;;;;;;7.93;1.90;;;;;;;7.98;100.00;96571.44;5033281;28;20033;-68
2022/11/24 11:27:04;;;;;;;8.82;2.17;;;;;;;8.14;100.00;96564.03;5029461;28;20028;-68
2022/11/24 11:29:30;;;;;;;7.70;2.40;;;;;;;8.07;100.00;96572.03;5032316;28;20051;-68
2022/11/24 11:31:59;;;;;;;9.48;1.98;;;;;;;8.17;100.00;96557.84;5030472;28;20600;-68
2022/11/24 11:34:25;;;;;;;8.50;2.05;;;;;;;8.31;100.00;96562.84;5024871;28;20068;-68